ΕΜΥ, Εθνική Μετεωρολογική Υπηρεσία - Δελτία Καιρού, Προγνώσεις

ΑΕΡΟΝΑΥΤΙΛΙΑ

GREEK AIRPORTS CODES

LGKR 240520Z 17014KT 8000 -RA SCT015 BKN025 BKN080 15/13 Q1015NOSIG=

EUROPEAN AIRPORTS CODES

LFPO 240530Z 21009KT 9999 BKN012 BKN046 03/01 Q0998 NOSIG=